Terminal Aerodrome Forecast
Issued by NWS

Home | Current Version | Previous Version | Text Only | Print | Product List | Glossary On
Versions: 1 2 3 4 5 6 7 8 9 10 11 12 13 14 15 16 17 18 19
000
FTUS43 KICT 260213 AAA
TAFRSL
TAF AMD
KRSL 260213Z 2602/2624 04012KT P6SM OVC009
     FM260800 07014KT 5SM BR OVC009
     FM261500 07015KT P6SM OVC015=

USA.gov is the U.S. government's official web portal to all federal, state and local government web resources and services.